Extreme high temperature From: 23-07-2018 05:00 Until: 24-07-2018 01:00 warning for: Extreme high temperature Level: Yellow info button
suomi:
Hellevaroitus: Lähivuorokauden aikana on odotettavissa tukalaa hellettä.

svenska:
Varning för värmebölja: Under det närmaste dygnet är den svåra hettan att vänta.

english:
Heat wave warning: Warm weather is expected during the coming 24 hours. 


Thunder radar more information blitzortung!


Löydät sääaseman tiedot myös:

European Weather Network

Finland Weather Exchange

Weather Underground

AWEKAS



Weather Underground säähistoriasivu

Päivittäin yhteenveto Tou 21, 2017 Yksiköt:  Metriset    Englantilaiset   Molemmat
« Edellinen Päivä
Seuraava Päivä »
Päivittäin Viikoittain Kuukausittain Vuosittain Mukautettu
  Korkea: Matala: Keskiarvo:
Lämpötila: -17.8 °C -18.2 °C -11.6 °C
Kastepiste: -17.8 °C -18.8 °C -16.4 °C
Kosteus: Humidity % 35 % 59 %
Tuulen nopeus: 0 km/h 0 km/h 0.8 km/h
Tuulenpuuska: 0 km/h - -
Tuuli:- - WNW
Ilmanpaine: 0 hPa 34279.9 hPa -
Sade: 0 mm    
Historical Graphs
 
 
Taulukkotiedot Tou 21, 2017
Aika Lämpötila Kastepiste Ilmanpaine Tuuli Tuulen nopeus Tuulenpuuska Kosteus Sademäärä (tunneittain)
-17.8 °C -17.8 °C 0 hPa Calm     Humidity % 0 mm
00:00 -15.4 °C -17.3 °C 34510.1 hPa Calm     79 % 0 mm
00:15 -15.7 °C -17.3 °C 34510.1 hPa Calm     81 % 0 mm
00:30 -15.9 °C -17.4 °C 34510.1 hPa Calm     82 % 0 mm
00:45 -15.9 °C -17.4 °C 34510.1 hPa Calm     82 % 0 mm
01:00 -16.1 °C -17.6 °C 34510.1 hPa Calm     83 % 0 mm
01:15 -16.3 °C -17.7 °C 34520.3 hPa Calm     84 % 0 mm
01:30 -16.6 °C -17.9 °C 34520.3 hPa Calm     85 % 0 mm
01:45 -16.8 °C -17.9 °C 34520.3 hPa Calm     86 % 0 mm
02:00 -17 °C -18.1 °C 34520.3 hPa Calm     87 % 0 mm
02:15 -17.1 °C -18.2 °C 34520.3 hPa Calm     87 % 0 mm
02:30 -17.2 °C -18.2 °C 34520.3 hPa Calm     88 % 0 mm
02:45 -17.3 °C -18.2 °C 34510.1 hPa Calm     89 % 0 mm
03:00 -17.4 °C -18.3 °C 34510.1 hPa Calm     89 % 0 mm
03:15 -17.6 °C -18.5 °C 34510.1 hPa Calm     89 % 0 mm
03:30 -17.7 °C -18.5 °C 34510.1 hPa Calm     90 % 0 mm
03:45 -17.8 °C -18.5 °C 34510.1 hPa Calm     91 % 0 mm
04:00 -17.8 °C -18.6 °C 34510.1 hPa Calm     91 % 0 mm
04:15 -17.9 °C -18.7 °C 34510.1 hPa Calm     91 % 0 mm
04:30 -18 °C -18.7 °C 34496.6 hPa Calm     91 % 0 mm
04:45 -18.2 °C -18.8 °C 34496.6 hPa Calm     92 % 0 mm
05:00 -18.2 °C -18.8 °C 34496.6 hPa Calm     92 % 0 mm
05:15 -18.2 °C -18.8 °C 34496.6 hPa Calm     92 % 0 mm
05:30 -18.1 °C -18.7 °C 34486.4 hPa Calm     93 % 0 mm
05:45 -18 °C -18.6 °C 34486.4 hPa Calm     93 % 0 mm
06:00 -17.9 °C -18.4 °C 34486.4 hPa Calm     93 % 0 mm
06:15 -17.7 °C -18.1 °C 34486.4 hPa Calm     94 % 0 mm
06:30 -17.3 °C -17.8 °C 34486.4 hPa Calm     94 % 0 mm
06:45 -17 °C -17.6 °C 34486.4 hPa Calm     93 % 0 mm
07:00 -16.7 °C -17.3 °C 34486.4 hPa Calm     92 % 0 mm
07:15 -16.2 °C -16.9 °C 34476.3 hPa Calm     90 % 0 mm
07:30 -15.5 °C -16.7 °C 34476.3 hPa Calm     86 % 0 mm
07:45 -14.9 °C -16.5 °C 34476.3 hPa Calm     82 % 0 mm
08:00 -14.4 °C -16.3 °C 34462.7 hPa Calm     79 % 0 mm
08:15 -14 °C -16.2 °C 34462.7 hPa Calm     76 % 0 mm
08:30 -13.6 °C -16 °C 34462.7 hPa Calm     74 % 0 mm
08:45 -12.9 °C -15.8 °C 34462.7 hPa Calm     70 % 0 mm
09:00 -12.1 °C -15.6 °C 34462.7 hPa Calm     65 % 0 mm
09:15 -11.5 °C -15.6 °C 34452.6 hPa Calm     61 % 0 mm
09:30 -10.9 °C -16.4 °C 34452.6 hPa Calm     51 % 0 mm
09:45 -10.4 °C -16.1 °C 34452.6 hPa Calm     50 % 0 mm
10:00 -10.1 °C -16.8 °C 34452.6 hPa Calm     44 % 0 mm
10:15 -9.6 °C -16.4 °C 34442.4 hPa Calm     44 % 0 mm
10:30 -9.4 °C -16.6 °C 34442.4 hPa Calm     42 % 0 mm
10:45 -9 °C -15.4 °C 34442.4 hPa Calm     46 % 0 mm
11:00 -8.7 °C -15.2 °C 34442.4 hPa NW 2.6 km/h 15.6 km/h 46 % 0 mm
11:15 -8.6 °C -15.1 °C 34442.4 hPa SW 5.1 km/h 23.3 km/h 46 % 0 mm
11:30 -8.4 °C -14.9 °C 34428.8 hPa WNW 5.1 km/h 18.2 km/h 46 % 0 mm
11:45 -8.4 °C -14.9 °C 34428.8 hPa NW 5.1 km/h 28.5 km/h 46 % 0 mm
12:00 -8.4 °C -15.2 °C 34428.8 hPa NW 7.7 km/h 23.3 km/h 44 % 0 mm
12:15 -8.3 °C -15.2 °C 34418.7 hPa NW 7.7 km/h 18.2 km/h 44 % 0 mm
12:30 -7.9 °C -15 °C 34418.7 hPa NW 5.1 km/h 18.2 km/h 43 % 0 mm
12:45 -7.9 °C -14.7 °C 34405.1 hPa NW 7.7 km/h 23.3 km/h 45 % 0 mm
13:00 -7.8 °C -14.7 °C 34405.1 hPa NW 7.7 km/h 25.9 km/h 44 % 0 mm
13:15 -7.4 °C -14.9 °C 34395 hPa WSW 5.1 km/h 23.3 km/h 41 % 0 mm
13:30 -7.3 °C -14.8 °C 34384.8 hPa WSW 5.1 km/h 20.8 km/h 41 % 0 mm
13:45 -7.1 °C -14.9 °C 34384.8 hPa WNW 7.7 km/h 25.9 km/h 40 % 0 mm
14:00 -7.1 °C -14.6 °C 34371.3 hPa West 5.1 km/h 25.9 km/h 41 % 0 mm
14:15 -6.9 °C -14.9 °C 34371.3 hPa Calm     39 % 0 mm
14:30 -7 °C -14.8 °C 34361.1 hPa Calm     40 % 0 mm
14:45 -6.8 °C -14.8 °C 34361.1 hPa Calm     39 % 0 mm
15:00 -6.7 °C -15.3 °C 34347.6 hPa Calm     36 % 0 mm
15:15 -6.7 °C -15.3 °C 34347.6 hPa Calm     36 % 0 mm
15:30 -6.7 °C -15.3 °C 34337.4 hPa Calm     36 % 0 mm
15:45 -6.6 °C -15.4 °C 34337.4 hPa Calm     35 % 0 mm
16:00 -6.5 °C -14.7 °C 34337.4 hPa Calm     38 % 0 mm
16:15 -6.3 °C -15 °C 34337.4 hPa Calm     36 % 0 mm
16:30 -6.5 °C -14.7 °C 34327.3 hPa Calm     38 % 0 mm
16:45 -6.3 °C -14.9 °C 34327.3 hPa Calm     36 % 0 mm
17:00 -6.7 °C -15.6 °C 34327.3 hPa Calm     35 % 0 mm
17:15 -6.8 °C -15.2 °C 34327.3 hPa Calm     37 % 0 mm
17:30 -6.8 °C -15.2 °C 34327.3 hPa Calm     37 % 0 mm
17:45 -6.9 °C -15.3 °C 34327.3 hPa Calm     37 % 0 mm
18:00 -7 °C -14.9 °C 34313.7 hPa Calm     39 % 0 mm
18:15 -7.1 °C -15.4 °C 34313.7 hPa Calm     37 % 0 mm
18:30 -7.1 °C -15.2 °C 34313.7 hPa Calm     38 % 0 mm
18:45 -7.3 °C -15.4 °C 34303.6 hPa Calm     38 % 0 mm
19:00 -7.3 °C -15.4 °C 34303.6 hPa Calm     38 % 0 mm
19:15 -7.6 °C -15.7 °C 34303.6 hPa Calm     38 % 0 mm
19:30 -7.8 °C -15.7 °C 34303.6 hPa Calm     39 % 0 mm
19:45 -8.1 °C -15.7 °C 34303.6 hPa Calm     40 % 0 mm
20:00 -8.3 °C -15.7 °C 34293.4 hPa Calm     41 % 0 mm
20:15 -8.5 °C -16.3 °C 34293.4 hPa Calm     39 % 0 mm
20:30 -8.7 °C -16.1 °C 34293.4 hPa Calm     41 % 0 mm
20:45 -8.9 °C -16.3 °C 34293.4 hPa Calm     41 % 0 mm
21:00 -9.1 °C -16.4 °C 34293.4 hPa Calm     41 % 0 mm
21:15 -9.2 °C -16.8 °C 34293.4 hPa Calm     40 % 0 mm
21:30 -9.4 °C -16.6 °C 34293.4 hPa Calm     42 % 0 mm
21:45 -9.7 °C -16.4 °C 34293.4 hPa Calm     44 % 0 mm
22:00 -10 °C -16.2 °C 34279.9 hPa Calm     47 % 0 mm
22:15 -10.3 °C -16.5 °C 34279.9 hPa Calm   2.6 km/h 47 % 0 mm
22:30 -10.6 °C -16.4 °C 34279.9 hPa Calm     49 % 0 mm
22:45 -11 °C -16.2 °C 34279.9 hPa Calm     53 % 0 mm
23:00 -11.6 °C -16 °C 34279.9 hPa Calm     58 % 0 mm
23:15 -12 °C -16.1 °C 34279.9 hPa Calm     60 % 0 mm
23:30 -12.6 °C -16.2 °C 34293.4 hPa Calm     64 % 0 mm
23:45 -13 °C -16.2 °C 34293.4 hPa Calm     67 % 0 mm
Esan sääasema
Terveisin Weather Underground - 2.75 mb

Alkuperäinen skripti  Jim McMurry - jmcmurry@mwt.net Sovitettu myös templatelle  Wim van der Kuil - Leuven-Template.eu

Laitteet joita käytämme:

Sääasema
Davis VP2

Sääasemaohjelma
Cumulus

Sääaseman tietokone
Asus EeePC

Palveluntarjoaja
Suncomet

Davis VP2

Cumulus

Asus EeePC

Suncomet